This is the latest recevied weather packets stored in our database for station/object W2SBL-1. If no packets are shown the sender has not sent any weather packets the latest 10 day(s).
| Time | Temp. | Humidity | Pressure | Rain* | Wind** | Luminosity | Snow |
|---|---|---|---|---|---|---|---|
| 1777317616 | 27.22° C | 45% | 1023.3 hPa | - | - | - | - |
| 1777316716 | 27.22° C | 45% | 1023.4 hPa | - | - | - | - |
| 1777315816 | 27.22° C | 46% | 1023.4 hPa | - | - | - | - |
| 1777314916 | 26.67° C | 46% | 1023.6 hPa | - | - | - | - |
| 1777314016 | 26.11° C | 47% | 1023.7 hPa | - | - | - | - |
| 1777313116 | 26.11° C | 47% | 1023.8 hPa | - | - | - | - |
| 1777312216 | 26.67° C | 46% | 1023.9 hPa | - | - | - | - |
| 1777311316 | 26.67° C | 46% | 1023.8 hPa | - | - | - | - |
| 1777310416 | 26.67° C | 46% | 1023.9 hPa | - | - | - | - |
| 1777309516 | 26.67° C | 46% | 1023.7 hPa | - | - | - | - |
| 1777308616 | 26.67° C | 45% | 1023.9 hPa | - | - | - | - |
| 1777307716 | 26.67° C | 44% | 1023.7 hPa | - | - | - | - |
| 1777306815 | 26.11° C | 44% | 1023.7 hPa | - | - | - | - |
| 1777305915 | 26.11° C | 44% | 1023.7 hPa | - | - | - | - |
| 1777305015 | 25.56° C | 43% | 1023.8 hPa | - | - | - | - |
| 1777304115 | 25.56° C | 43% | 1023.9 hPa | - | - | - | - |
| 1777303215 | 26.11° C | 41% | 1023.8 hPa | - | - | - | - |
| 1777302315 | 24.44° C | 42% | 1023.8 hPa | - | - | - | - |
| 1777301415 | 22.22° C | 44% | 1023.6 hPa | - | - | - | - |
| 1777300515 | 21.11° C | 44% | 1023.7 hPa | - | - | - | - |
| 1777299615 | 10.56° C | 46% | 1009.4 hPa | - | - | - | - |
| 1777298715 | 20° C | 45% | 1023.6 hPa | - | - | - | - |
| 1777297815 | 18.89° C | 45% | 1023.3 hPa | - | - | - | - |
| 1777296914 | 18.33° C | 45% | 1023.1 hPa | - | - | - | - |
| 1777296014 | 18.33° C | 44% | 1023 hPa | - | - | - | - |
* Rain since midnight (hover to see other rain measurements)
** Current wind speed in m/s (hover to see current wind gust speed)